PDT5802 KCLT-KEVV
Flight info
| Callsign | PDT5802 |
|---|---|
| Flight time | 1h 14m |
| Altitude | 28000 |
| Route | JOJJO5 CUBIM |
| Aircraft | E145/M-SDFGIRW/S |
Departure
| Time | 2026-05-08 20:06 |
|---|---|
| Airport | Charlotte Douglas International Airport (KCLT) |
Arrival
| Time | 2026-05-08 21:20 |
|---|---|
| Airport | Evansville Regional Airport (KEVV) |
| Time | Latitude | Longitude | Altitude | Speed | Heading |
|---|---|---|---|---|---|
| 2026-05-08 19:37 | 35.22515 | -80.93971 | 731 ft | 0 kts | 303° |
| 2026-05-08 19:55 | 35.22509 | -80.93960 | 731 ft | 2 kts | 304° |
| 2026-05-08 19:55 | 35.22501 | -80.93945 | 732 ft | 2 kts | 304° |
| 2026-05-08 19:55 | 35.22489 | -80.93934 | 732 ft | 2 kts | 354° |
| 2026-05-08 19:55 | 35.22475 | -80.93938 | 732 ft | 2 kts | 46° |
| 2026-05-08 19:56 | 35.22464 | -80.93951 | 732 ft | 2 kts | 25° |
| 2026-05-08 19:56 | 35.22450 | -80.93956 | 731 ft | 2 kts | 4° |
| 2026-05-08 19:56 | 35.22435 | -80.93956 | 731 ft | 1 kts | 359° |
| 2026-05-08 19:56 | 35.22433 | -80.93956 | 731 ft | 0 kts | 359° |
| 2026-05-08 19:58 | 35.22435 | -80.93956 | 731 ft | 1 kts | 359° |
| 2026-05-08 19:59 | 35.22455 | -80.93954 | 731 ft | 6 kts | 15° |
| 2026-05-08 19:59 | 35.22493 | -80.93890 | 733 ft | 10 kts | 83° |
| 2026-05-08 19:59 | 35.22452 | -80.93829 | 734 ft | 10 kts | 161° |
| 2026-05-08 19:59 | 35.22398 | -80.93787 | 735 ft | 10 kts | 92° |
| 2026-05-08 20:00 | 35.22352 | -80.93741 | 736 ft | 10 kts | 174° |
| 2026-05-08 20:00 | 35.22272 | -80.93734 | 736 ft | 12 kts | 176° |
| 2026-05-08 20:00 | 35.22154 | -80.93723 | 736 ft | 22 kts | 176° |
| 2026-05-08 20:00 | 35.21986 | -80.93710 | 733 ft | 25 kts | 175° |
| 2026-05-08 20:01 | 35.21827 | -80.93716 | 733 ft | 21 kts | 220° |
| 2026-05-08 20:01 | 35.21720 | -80.93862 | 728 ft | 24 kts | 229° |
| 2026-05-08 20:01 | 35.21600 | -80.94029 | 722 ft | 27 kts | 229° |
| 2026-05-08 20:01 | 35.21465 | -80.94212 | 715 ft | 30 kts | 228° |
| 2026-05-08 20:02 | 35.21318 | -80.94415 | 706 ft | 33 kts | 229° |
| 2026-05-08 20:02 | 35.21177 | -80.94609 | 702 ft | 28 kts | 229° |
| 2026-05-08 20:02 | 35.21040 | -80.94797 | 698 ft | 29 kts | 228° |
| 2026-05-08 20:02 | 35.20935 | -80.94942 | 699 ft | 19 kts | 221° |
| 2026-05-08 20:03 | 35.20795 | -80.94949 | 697 ft | 21 kts | 175° |
| 2026-05-08 20:03 | 35.20635 | -80.94936 | 693 ft | 24 kts | 175° |
| 2026-05-08 20:03 | 35.20464 | -80.94921 | 690 ft | 19 kts | 183° |
| 2026-05-08 20:03 | 35.20418 | -80.95006 | 691 ft | 12 kts | 266° |
| 2026-05-08 20:04 | 35.20414 | -80.95099 | 694 ft | 7 kts | 276° |
| 2026-05-08 20:04 | 35.20439 | -80.95116 | 695 ft | 0 kts | 355° |
| 2026-05-08 20:05 | 35.20446 | -80.95116 | 695 ft | 5 kts | 355° |
| 2026-05-08 20:05 | 35.20717 | -80.95140 | 702 ft | 76 kts | 356° |
| 2026-05-08 20:05 | 35.21467 | -80.95204 | 715 ft | 137 kts | 355° |
| 2026-05-08 20:05 | 35.22533 | -80.95298 | 921 ft | 161 kts | 355° |
| 2026-05-08 20:06 | 35.23682 | -80.95441 | 1483 ft | 171 kts | 345° |
| 2026-05-08 20:06 | 35.24762 | -80.96116 | 1921 ft | 181 kts | 324° |
| 2026-05-08 20:06 | 35.25828 | -80.97057 | 2265 ft | 202 kts | 322° |
| 2026-05-08 20:06 | 35.27010 | -80.98150 | 2617 ft | 223 kts | 321° |
| 2026-05-08 20:07 | 35.28247 | -80.99313 | 3294 ft | 228 kts | 322° |
| 2026-05-08 20:07 | 35.29513 | -81.00510 | 4049 ft | 229 kts | 320° |
| 2026-05-08 20:07 | 35.30758 | -81.01766 | 4424 ft | 248 kts | 309° |
| 2026-05-08 20:07 | 35.31654 | -81.03653 | 4867 ft | 261 kts | 298° |
| 2026-05-08 20:08 | 35.32550 | -81.05434 | 5647 ft | 259 kts | 301° |
| 2026-05-08 20:08 | 35.33515 | -81.07271 | 6382 ft | 260 kts | 301° |
| 2026-05-08 20:08 | 35.34499 | -81.09119 | 7200 ft | 257 kts | 302° |
| 2026-05-08 20:08 | 35.35461 | -81.10924 | 7973 ft | 255 kts | 301° |
| 2026-05-08 20:09 | 35.36429 | -81.12737 | 8697 ft | 254 kts | 301° |
| 2026-05-08 20:09 | 35.37392 | -81.14545 | 9452 ft | 252 kts | 301° |
| 2026-05-08 20:09 | 35.38337 | -81.16318 | 10134 ft | 252 kts | 301° |
| 2026-05-08 20:09 | 35.39312 | -81.18148 | 10668 ft | 258 kts | 301° |
| 2026-05-08 20:10 | 35.40302 | -81.20010 | 11046 ft | 269 kts | 301° |
| 2026-05-08 20:10 | 35.41350 | -81.21980 | 11477 ft | 278 kts | 301° |
| 2026-05-08 20:10 | 35.42421 | -81.23994 | 11896 ft | 285 kts | 301° |
| 2026-05-08 20:10 | 35.43508 | -81.26040 | 12274 ft | 294 kts | 301° |
| 2026-05-08 20:11 | 35.44637 | -81.28130 | 12853 ft | 295 kts | 302° |
| 2026-05-08 20:11 | 35.45837 | -81.30194 | 13423 ft | 295 kts | 302° |
| 2026-05-08 20:11 | 35.47024 | -81.32251 | 13972 ft | 296 kts | 302° |
| 2026-05-08 20:11 | 35.48201 | -81.34290 | 14516 ft | 297 kts | 302° |
| 2026-05-08 20:12 | 35.49396 | -81.36363 | 15040 ft | 298 kts | 302° |
| 2026-05-08 20:12 | 35.50581 | -81.38420 | 15591 ft | 297 kts | 302° |
| 2026-05-08 20:12 | 35.51769 | -81.40488 | 16085 ft | 298 kts | 301° |
| 2026-05-08 20:12 | 35.52964 | -81.42576 | 16524 ft | 300 kts | 301° |
| 2026-05-08 20:13 | 35.54178 | -81.44696 | 17027 ft | 300 kts | 301° |
| 2026-05-08 20:13 | 35.55365 | -81.46790 | 17506 ft | 300 kts | 298° |
| 2026-05-08 20:13 | 35.56347 | -81.49008 | 18038 ft | 296 kts | 294° |
| 2026-05-08 20:13 | 35.57294 | -81.51236 | 18530 ft | 296 kts | 294° |
| 2026-05-08 20:14 | 35.58243 | -81.53464 | 19076 ft | 293 kts | 294° |
| 2026-05-08 20:14 | 35.59178 | -81.55662 | 19651 ft | 289 kts | 294° |
| 2026-05-08 20:14 | 35.60103 | -81.57838 | 20189 ft | 286 kts | 294° |
| 2026-05-08 20:14 | 35.61011 | -81.59976 | 20668 ft | 285 kts | 293° |
| 2026-05-08 20:15 | 35.61941 | -81.62135 | 21150 ft | 284 kts | 294° |
| 2026-05-08 20:15 | 35.62859 | -81.64257 | 21654 ft | 282 kts | 293° |
| 2026-05-08 20:15 | 35.63775 | -81.66376 | 22153 ft | 280 kts | 292° |
| 2026-05-08 20:15 | 35.64687 | -81.68491 | 22629 ft | 279 kts | 292° |
| 2026-05-08 20:16 | 35.65590 | -81.70579 | 23159 ft | 276 kts | 292° |
| 2026-05-08 20:16 | 35.66484 | -81.72654 | 23635 ft | 274 kts | 292° |
| 2026-05-08 20:16 | 35.67367 | -81.74701 | 24168 ft | 271 kts | 292° |
| 2026-05-08 20:16 | 35.68231 | -81.76702 | 24812 ft | 263 kts | 291° |
| 2026-05-08 20:17 | 35.69079 | -81.78673 | 25288 ft | 260 kts | 290° |
| 2026-05-08 20:17 | 35.69915 | -81.80617 | 25752 ft | 258 kts | 290° |
| 2026-05-08 20:17 | 35.70739 | -81.82533 | 26318 ft | 251 kts | 290° |
| 2026-05-08 20:17 | 35.71548 | -81.84414 | 26785 ft | 248 kts | 290° |
| 2026-05-08 20:18 | 35.72344 | -81.86266 | 27308 ft | 243 kts | 289° |
| 2026-05-08 20:18 | 35.73128 | -81.88092 | 27743 ft | 240 kts | 289° |
| 2026-05-08 20:18 | 35.73905 | -81.89906 | 28006 ft | 242 kts | 289° |
| 2026-05-08 20:18 | 35.74763 | -81.91751 | 28023 ft | 256 kts | 295° |
| 2026-05-08 20:19 | 35.76022 | -81.93420 | 28025 ft | 278 kts | 306° |
| 2026-05-08 20:19 | 35.77618 | -81.94858 | 28042 ft | 291 kts | 310° |
| 2026-05-08 20:19 | 35.79271 | -81.96361 | 28036 ft | 298 kts | 309° |
| 2026-05-08 20:19 | 35.80944 | -81.97916 | 28036 ft | 304 kts | 308° |
| 2026-05-08 20:20 | 35.84384 | -82.01159 | 28040 ft | 317 kts | 309° |
| 2026-05-08 20:20 | 35.87941 | -82.04531 | 28046 ft | 328 kts | 310° |
| 2026-05-08 20:21 | 35.91589 | -82.07997 | 28053 ft | 338 kts | 309° |
| 2026-05-08 20:21 | 35.95361 | -82.11585 | 28040 ft | 346 kts | 310° |
| 2026-05-08 20:22 | 35.99209 | -82.15250 | 28035 ft | 353 kts | 310° |
| 2026-05-08 20:22 | 36.03122 | -82.18983 | 28045 ft | 359 kts | 310° |
| 2026-05-08 20:23 | 36.07108 | -82.22789 | 28031 ft | 364 kts | 310° |
| 2026-05-08 20:23 | 36.11145 | -82.26651 | 28029 ft | 369 kts | 311° |
| 2026-05-08 20:24 | 36.15216 | -82.30550 | 28032 ft | 372 kts | 311° |
| 2026-05-08 20:24 | 36.19326 | -82.34491 | 28018 ft | 376 kts | 311° |
| 2026-05-08 20:25 | 36.23467 | -82.38467 | 28024 ft | 378 kts | 311° |
| 2026-05-08 20:25 | 36.27647 | -82.42488 | 28019 ft | 381 kts | 311° |
| 2026-05-08 20:26 | 36.31842 | -82.46527 | 28009 ft | 383 kts | 311° |
| 2026-05-08 20:26 | 36.36053 | -82.50587 | 28019 ft | 383 kts | 311° |
| 2026-05-08 20:27 | 36.40236 | -82.54627 | 28005 ft | 383 kts | 312° |
| 2026-05-08 20:27 | 36.44453 | -82.58706 | 28012 ft | 383 kts | 312° |
| 2026-05-08 20:28 | 36.48649 | -82.62769 | 28009 ft | 383 kts | 312° |
| 2026-05-08 20:28 | 36.52858 | -82.66851 | 28030 ft | 384 kts | 311° |
| 2026-05-08 20:29 | 36.57090 | -82.70962 | 28024 ft | 386 kts | 311° |
| 2026-05-08 20:29 | 36.61328 | -82.75083 | 28006 ft | 388 kts | 311° |
| 2026-05-08 20:30 | 36.65609 | -82.79253 | 28010 ft | 389 kts | 312° |
| 2026-05-08 20:30 | 36.69886 | -82.83424 | 28002 ft | 390 kts | 312° |
| 2026-05-08 20:31 | 36.74162 | -82.87601 | 28007 ft | 391 kts | 311° |
| 2026-05-08 20:31 | 36.78519 | -82.91774 | 28016 ft | 393 kts | 313° |
| 2026-05-08 20:32 | 36.82861 | -82.95930 | 28003 ft | 393 kts | 313° |
| 2026-05-08 20:32 | 36.87148 | -83.00030 | 28007 ft | 388 kts | 313° |
| 2026-05-08 20:33 | 36.89285 | -83.02100 | 27999 ft | 382 kts | 310° |
| 2026-05-08 20:33 | 36.91095 | -83.04442 | 27998 ft | 371 kts | 302° |
| 2026-05-08 20:33 | 36.92787 | -83.06910 | 27999 ft | 370 kts | 303° |
| 2026-05-08 20:33 | 36.94479 | -83.09339 | 28009 ft | 371 kts | 303° |
| 2026-05-08 20:34 | 36.97863 | -83.14218 | 27993 ft | 375 kts | 303° |
| 2026-05-08 20:34 | 37.01317 | -83.19157 | 27997 ft | 379 kts | 303° |
| 2026-05-08 20:35 | 37.03036 | -83.21616 | 28001 ft | 380 kts | 303° |
| 2026-05-08 20:35 | 37.04777 | -83.24126 | 27999 ft | 382 kts | 303° |
| 2026-05-08 20:35 | 37.06526 | -83.26650 | 27998 ft | 384 kts | 303° |
| 2026-05-08 20:35 | 37.08285 | -83.29185 | 27993 ft | 385 kts | 303° |
| 2026-05-08 20:36 | 37.10036 | -83.31720 | 27987 ft | 384 kts | 303° |
| 2026-05-08 20:36 | 37.11760 | -83.34210 | 27986 ft | 381 kts | 303° |
| 2026-05-08 20:36 | 37.13509 | -83.36723 | 27987 ft | 378 kts | 303° |
| 2026-05-08 20:36 | 37.15230 | -83.39200 | 27983 ft | 378 kts | 303° |
| 2026-05-08 20:37 | 37.16957 | -83.41694 | 27977 ft | 380 kts | 303° |
| 2026-05-08 20:37 | 37.18678 | -83.44192 | 27986 ft | 379 kts | 302° |
| 2026-05-08 20:37 | 37.20172 | -83.46879 | 27977 ft | 370 kts | 294° |
| 2026-05-08 20:37 | 37.21414 | -83.49683 | 27973 ft | 368 kts | 294° |
| 2026-05-08 20:38 | 37.22669 | -83.52490 | 27974 ft | 369 kts | 293° |
| 2026-05-08 20:38 | 37.23930 | -83.55299 | 27978 ft | 370 kts | 294° |
| 2026-05-08 20:38 | 37.25179 | -83.58141 | 27969 ft | 372 kts | 294° |
| 2026-05-08 20:38 | 37.26422 | -83.60960 | 27958 ft | 373 kts | 293° |
| 2026-05-08 20:39 | 37.27685 | -83.63808 | 27966 ft | 374 kts | 294° |
| 2026-05-08 20:39 | 37.28947 | -83.66646 | 27974 ft | 376 kts | 293° |
| 2026-05-08 20:39 | 37.30221 | -83.69531 | 27980 ft | 377 kts | 293° |
| 2026-05-08 20:39 | 37.31500 | -83.72437 | 27978 ft | 379 kts | 293° |
| 2026-05-08 20:40 | 37.32774 | -83.75348 | 27972 ft | 380 kts | 293° |
| 2026-05-08 20:40 | 37.34052 | -83.78254 | 27971 ft | 382 kts | 293° |
| 2026-05-08 20:40 | 37.35330 | -83.81144 | 27966 ft | 383 kts | 293° |
| 2026-05-08 20:40 | 37.36628 | -83.84064 | 27975 ft | 383 kts | 293° |
| 2026-05-08 20:41 | 37.37918 | -83.87004 | 27981 ft | 384 kts | 293° |
| 2026-05-08 20:41 | 37.39209 | -83.89944 | 27976 ft | 384 kts | 293° |
| 2026-05-08 20:41 | 37.40514 | -83.92880 | 27977 ft | 384 kts | 294° |
| 2026-05-08 20:41 | 37.41814 | -83.95795 | 27977 ft | 383 kts | 293° |
| 2026-05-08 20:42 | 37.43105 | -83.98671 | 27978 ft | 382 kts | 294° |
| 2026-05-08 20:42 | 37.44402 | -84.01585 | 27982 ft | 381 kts | 294° |
| 2026-05-08 20:42 | 37.45688 | -84.04499 | 27976 ft | 380 kts | 293° |
| 2026-05-08 20:42 | 37.46977 | -84.07398 | 27972 ft | 380 kts | 294° |
| 2026-05-08 20:43 | 37.48260 | -84.10290 | 27977 ft | 379 kts | 294° |
| 2026-05-08 20:43 | 37.49534 | -84.13192 | 27971 ft | 379 kts | 293° |
| 2026-05-08 20:43 | 37.50813 | -84.16060 | 27977 ft | 378 kts | 294° |
| 2026-05-08 20:43 | 37.52110 | -84.18951 | 27981 ft | 378 kts | 294° |
| 2026-05-08 20:44 | 37.53399 | -84.21835 | 27982 ft | 377 kts | 294° |
| 2026-05-08 20:44 | 37.54665 | -84.24680 | 27988 ft | 377 kts | 294° |
| 2026-05-08 20:44 | 37.55950 | -84.27548 | 27993 ft | 376 kts | 294° |
| 2026-05-08 20:44 | 37.57216 | -84.30420 | 27987 ft | 376 kts | 294° |
| 2026-05-08 20:45 | 37.58493 | -84.33291 | 27995 ft | 376 kts | 294° |
| 2026-05-08 20:45 | 37.59771 | -84.36165 | 27995 ft | 377 kts | 294° |
| 2026-05-08 20:45 | 37.61046 | -84.39062 | 27988 ft | 379 kts | 294° |
| 2026-05-08 20:45 | 37.62333 | -84.41964 | 27988 ft | 380 kts | 294° |
| 2026-05-08 20:46 | 37.63625 | -84.44865 | 27986 ft | 382 kts | 294° |
| 2026-05-08 20:46 | 37.64937 | -84.47822 | 27982 ft | 383 kts | 294° |
| 2026-05-08 20:46 | 37.66213 | -84.50725 | 27986 ft | 384 kts | 294° |
| 2026-05-08 20:46 | 37.67512 | -84.53683 | 27980 ft | 385 kts | 294° |
| 2026-05-08 20:47 | 37.68807 | -84.56646 | 27978 ft | 386 kts | 294° |
| 2026-05-08 20:47 | 37.70112 | -84.59621 | 27973 ft | 387 kts | 294° |
| 2026-05-08 20:47 | 37.71422 | -84.62610 | 27972 ft | 388 kts | 294° |
| 2026-05-08 20:47 | 37.72718 | -84.65558 | 27985 ft | 389 kts | 294° |
| 2026-05-08 20:48 | 37.74031 | -84.68553 | 27989 ft | 390 kts | 294° |
| 2026-05-08 20:48 | 37.75348 | -84.71560 | 27989 ft | 391 kts | 294° |
| 2026-05-08 20:48 | 37.76674 | -84.74577 | 27995 ft | 392 kts | 294° |
| 2026-05-08 20:48 | 37.77984 | -84.77571 | 27991 ft | 393 kts | 294° |
| 2026-05-08 20:49 | 37.79309 | -84.80596 | 27987 ft | 395 kts | 294° |
| 2026-05-08 20:49 | 37.80639 | -84.83636 | 27990 ft | 395 kts | 294° |
| 2026-05-08 20:49 | 37.81950 | -84.86677 | 27983 ft | 393 kts | 293° |
| 2026-05-08 20:49 | 37.83266 | -84.89704 | 27980 ft | 391 kts | 294° |
| 2026-05-08 20:50 | 37.84553 | -84.92687 | 27979 ft | 391 kts | 294° |
| 2026-05-08 20:50 | 37.85862 | -84.95705 | 27981 ft | 391 kts | 294° |
| 2026-05-08 20:50 | 37.87177 | -84.98741 | 27978 ft | 392 kts | 294° |
| 2026-05-08 20:50 | 37.88490 | -85.01744 | 27984 ft | 392 kts | 294° |
| 2026-05-08 20:51 | 37.89800 | -85.04755 | 28043 ft | 391 kts | 294° |
| 2026-05-08 20:51 | 37.92430 | -85.10751 | 28046 ft | 388 kts | 295° |
| 2026-05-08 20:52 | 37.95044 | -85.16698 | 28042 ft | 384 kts | 295° |
| 2026-05-08 20:52 | 37.97607 | -85.22543 | 28035 ft | 380 kts | 294° |
| 2026-05-08 20:53 | 38.00190 | -85.28414 | 28038 ft | 382 kts | 294° |
| 2026-05-08 20:53 | 38.02773 | -85.34314 | 28033 ft | 384 kts | 294° |
| 2026-05-08 20:54 | 38.05355 | -85.40218 | 28033 ft | 386 kts | 294° |
| 2026-05-08 20:54 | 38.07980 | -85.46178 | 27688 ft | 380 kts | 294° |
| 2026-05-08 20:54 | 38.09257 | -85.49081 | 27169 ft | 378 kts | 295° |
| 2026-05-08 20:55 | 38.10527 | -85.51977 | 26652 ft | 376 kts | 295° |
| 2026-05-08 20:55 | 38.11787 | -85.54875 | 26134 ft | 374 kts | 295° |
| 2026-05-08 20:55 | 38.13025 | -85.57757 | 25618 ft | 372 kts | 295° |
| 2026-05-08 20:55 | 38.14265 | -85.60671 | 25094 ft | 371 kts | 295° |
| 2026-05-08 20:56 | 38.15462 | -85.63515 | 24741 ft | 367 kts | 295° |
| 2026-05-08 20:56 | 38.16664 | -85.66379 | 24476 ft | 366 kts | 294° |
| 2026-05-08 20:56 | 38.17843 | -85.69228 | 24223 ft | 364 kts | 295° |
| 2026-05-08 20:56 | 38.19017 | -85.72079 | 23969 ft | 363 kts | 295° |
| 2026-05-08 20:57 | 38.20186 | -85.74908 | 23715 ft | 362 kts | 294° |
| 2026-05-08 20:57 | 38.21354 | -85.77746 | 23460 ft | 362 kts | 294° |
| 2026-05-08 20:57 | 38.22504 | -85.80545 | 23209 ft | 361 kts | 295° |
| 2026-05-08 20:57 | 38.23661 | -85.83377 | 22953 ft | 360 kts | 294° |
| 2026-05-08 20:58 | 38.24817 | -85.86199 | 22697 ft | 360 kts | 295° |
| 2026-05-08 20:58 | 38.25960 | -85.89025 | 22441 ft | 359 kts | 295° |
| 2026-05-08 20:58 | 38.27111 | -85.91873 | 22184 ft | 359 kts | 295° |
| 2026-05-08 20:58 | 38.28267 | -85.94717 | 21719 ft | 364 kts | 295° |
| 2026-05-08 20:59 | 38.29417 | -85.97580 | 21210 ft | 364 kts | 295° |
| 2026-05-08 20:59 | 38.30570 | -86.00463 | 20703 ft | 365 kts | 295° |
| 2026-05-08 20:59 | 38.31616 | -86.03409 | 20182 ft | 364 kts | 287° |
| 2026-05-08 20:59 | 38.32304 | -86.06505 | 19698 ft | 363 kts | 285° |
| 2026-05-08 21:00 | 38.32977 | -86.09579 | 19208 ft | 363 kts | 284° |
| 2026-05-08 21:00 | 38.33653 | -86.12673 | 18706 ft | 363 kts | 285° |
| 2026-05-08 21:00 | 38.34337 | -86.15787 | 18192 ft | 363 kts | 285° |
| 2026-05-08 21:00 | 38.35000 | -86.18864 | 17693 ft | 361 kts | 285° |
| 2026-05-08 21:01 | 38.35663 | -86.21916 | 17193 ft | 359 kts | 285° |
| 2026-05-08 21:01 | 38.36327 | -86.25003 | 16682 ft | 354 kts | 285° |
| 2026-05-08 21:01 | 38.36971 | -86.27978 | 16185 ft | 351 kts | 285° |
| 2026-05-08 21:01 | 38.37616 | -86.30971 | 15680 ft | 347 kts | 285° |
| 2026-05-08 21:02 | 38.38257 | -86.33929 | 15174 ft | 344 kts | 285° |
| 2026-05-08 21:02 | 38.38881 | -86.36852 | 14673 ft | 341 kts | 285° |
| 2026-05-08 21:02 | 38.39354 | -86.39786 | 14156 ft | 340 kts | 274° |
| 2026-05-08 21:02 | 38.39151 | -86.42774 | 13666 ft | 335 kts | 265° |
| 2026-05-08 21:03 | 38.38860 | -86.45654 | 13157 ft | 319 kts | 265° |
| 2026-05-08 21:03 | 38.38589 | -86.48428 | 12642 ft | 307 kts | 265° |
| 2026-05-08 21:03 | 38.38333 | -86.51091 | 12137 ft | 296 kts | 265° |
| 2026-05-08 21:03 | 38.38089 | -86.53652 | 11635 ft | 288 kts | 265° |
| 2026-05-08 21:04 | 38.37853 | -86.56164 | 11127 ft | 280 kts | 265° |
| 2026-05-08 21:04 | 38.37627 | -86.58603 | 10622 ft | 274 kts | 265° |
| 2026-05-08 21:04 | 38.37421 | -86.60944 | 10226 ft | 265 kts | 265° |
| 2026-05-08 21:04 | 38.37222 | -86.63240 | 9943 ft | 254 kts | 265° |
| 2026-05-08 21:05 | 38.37026 | -86.65519 | 9694 ft | 264 kts | 265° |
| 2026-05-08 21:05 | 38.36826 | -86.67851 | 9456 ft | 264 kts | 265° |
| 2026-05-08 21:05 | 38.36636 | -86.70155 | 9230 ft | 261 kts | 265° |
| 2026-05-08 21:05 | 38.36453 | -86.72455 | 9024 ft | 257 kts | 265° |
| 2026-05-08 21:06 | 38.36272 | -86.74701 | 8829 ft | 254 kts | 265° |
| 2026-05-08 21:06 | 38.36093 | -86.76949 | 8629 ft | 251 kts | 265° |
| 2026-05-08 21:06 | 38.35921 | -86.79159 | 8429 ft | 249 kts | 265° |
| 2026-05-08 21:06 | 38.35750 | -86.81348 | 8226 ft | 247 kts | 265° |
| 2026-05-08 21:07 | 38.35585 | -86.83515 | 8039 ft | 251 kts | 265° |
| 2026-05-08 21:07 | 38.35414 | -86.85741 | 7839 ft | 253 kts | 265° |
| 2026-05-08 21:07 | 38.35249 | -86.87935 | 7579 ft | 246 kts | 265° |
| 2026-05-08 21:07 | 38.35092 | -86.90093 | 7338 ft | 246 kts | 265° |
| 2026-05-08 21:08 | 38.34941 | -86.92248 | 7093 ft | 243 kts | 265° |
| 2026-05-08 21:08 | 38.34793 | -86.94366 | 6841 ft | 239 kts | 265° |
| 2026-05-08 21:08 | 38.34650 | -86.96469 | 6591 ft | 237 kts | 265° |
| 2026-05-08 21:08 | 38.34514 | -86.98562 | 6345 ft | 235 kts | 265° |
| 2026-05-08 21:09 | 38.34380 | -87.00623 | 6106 ft | 233 kts | 265° |
| 2026-05-08 21:09 | 38.34252 | -87.02647 | 5859 ft | 232 kts | 265° |
| 2026-05-08 21:09 | 38.34131 | -87.04706 | 5612 ft | 231 kts | 265° |
| 2026-05-08 21:09 | 38.34022 | -87.06731 | 5364 ft | 230 kts | 265° |
| 2026-05-08 21:10 | 38.33926 | -87.08762 | 5119 ft | 229 kts | 265° |
| 2026-05-08 21:10 | 38.33840 | -87.10783 | 4876 ft | 229 kts | 265° |
| 2026-05-08 21:10 | 38.33687 | -87.12797 | 4626 ft | 227 kts | 252° |
| 2026-05-08 21:10 | 38.33090 | -87.14658 | 4392 ft | 225 kts | 245° |
| 2026-05-08 21:11 | 38.32470 | -87.16476 | 4143 ft | 222 kts | 246° |
| 2026-05-08 21:11 | 38.31870 | -87.18262 | 3895 ft | 219 kts | 245° |
| 2026-05-08 21:11 | 38.31277 | -87.20062 | 3642 ft | 217 kts | 245° |
| 2026-05-08 21:11 | 38.30706 | -87.21825 | 3396 ft | 215 kts | 246° |
| 2026-05-08 21:12 | 38.30150 | -87.23576 | 3148 ft | 213 kts | 246° |
| 2026-05-08 21:12 | 38.29593 | -87.25315 | 2894 ft | 210 kts | 241° |
| 2026-05-08 21:12 | 38.28657 | -87.26632 | 2721 ft | 197 kts | 217° |
| 2026-05-08 21:12 | 38.27570 | -87.27670 | 2561 ft | 191 kts | 217° |
| 2026-05-08 21:13 | 38.26563 | -87.28733 | 2551 ft | 182 kts | 220° |
| 2026-05-08 21:13 | 38.25624 | -87.29761 | 2549 ft | 173 kts | 221° |
| 2026-05-08 21:13 | 38.24817 | -87.30824 | 2546 ft | 165 kts | 226° |
| 2026-05-08 21:13 | 38.24056 | -87.31876 | 2548 ft | 158 kts | 226° |
| 2026-05-08 21:14 | 38.23318 | -87.32898 | 2544 ft | 152 kts | 226° |
| 2026-05-08 21:14 | 38.22619 | -87.33843 | 2637 ft | 143 kts | 224° |
| 2026-05-08 21:14 | 38.21885 | -87.34747 | 2974 ft | 154 kts | 221° |
| 2026-05-08 21:14 | 38.21031 | -87.35696 | 3043 ft | 175 kts | 220° |
| 2026-05-08 21:15 | 38.20058 | -87.36724 | 2819 ft | 186 kts | 219° |
| 2026-05-08 21:15 | 38.19036 | -87.37770 | 2596 ft | 187 kts | 218° |
| 2026-05-08 21:15 | 38.18044 | -87.38766 | 2565 ft | 182 kts | 217° |
| 2026-05-08 21:15 | 38.17030 | -87.39775 | 2571 ft | 186 kts | 217° |
| 2026-05-08 21:16 | 38.16002 | -87.40795 | 2578 ft | 187 kts | 217° |
| 2026-05-08 21:16 | 38.15004 | -87.41786 | 2596 ft | 169 kts | 217° |
| 2026-05-08 21:16 | 38.14140 | -87.42643 | 2547 ft | 145 kts | 217° |
| 2026-05-08 21:16 | 38.13397 | -87.43380 | 2543 ft | 127 kts | 217° |
| 2026-05-08 21:17 | 38.12741 | -87.44030 | 2516 ft | 118 kts | 218° |
| 2026-05-08 21:17 | 38.12100 | -87.44645 | 2255 ft | 112 kts | 216° |
| 2026-05-08 21:17 | 38.11482 | -87.45250 | 2038 ft | 114 kts | 217° |
| 2026-05-08 21:17 | 38.10851 | -87.45875 | 1791 ft | 115 kts | 217° |
| 2026-05-08 21:18 | 38.10218 | -87.46504 | 1611 ft | 118 kts | 217° |
| 2026-05-08 21:18 | 38.09582 | -87.47144 | 1445 ft | 117 kts | 217° |
| 2026-05-08 21:18 | 38.08942 | -87.47774 | 1290 ft | 115 kts | 216° |
| 2026-05-08 21:18 | 38.08311 | -87.48403 | 1131 ft | 115 kts | 217° |
| 2026-05-08 21:19 | 38.07693 | -87.49020 | 998 ft | 113 kts | 217° |
| 2026-05-08 21:19 | 38.07047 | -87.49660 | 860 ft | 119 kts | 217° |
| 2026-05-08 21:19 | 38.06407 | -87.50304 | 771 ft | 117 kts | 217° |
| 2026-05-08 21:19 | 38.05748 | -87.50944 | 577 ft | 119 kts | 216° |
| 2026-05-08 21:20 | 38.05109 | -87.51572 | 429 ft | 111 kts | 216° |
| 2026-05-08 21:20 | 38.04606 | -87.52068 | 423 ft | 65 kts | 219° |
| 2026-05-08 21:20 | 38.04373 | -87.52319 | 423 ft | 22 kts | 255° |
| 2026-05-08 21:20 | 38.04372 | -87.52445 | 423 ft | 0 kts | 270° |
| 2026-05-08 21:21 | 38.04372 | -87.52447 | 423 ft | 0 kts | 270° |
| 2026-05-08 21:21 | 38.04372 | -87.52465 | 423 ft | 3 kts | 271° |
| 2026-05-08 21:22 | 38.04373 | -87.52511 | 423 ft | 6 kts | 271° |
| 2026-05-08 21:22 | 38.04375 | -87.52582 | 423 ft | 8 kts | 270° |
| 2026-05-08 21:22 | 38.04382 | -87.52663 | 423 ft | 9 kts | 290° |
| 2026-05-08 21:22 | 38.04431 | -87.52726 | 423 ft | 11 kts | 347° |
| 2026-05-08 21:23 | 38.04504 | -87.52672 | 423 ft | 13 kts | 38° |
| 2026-05-08 21:23 | 38.04559 | -87.52668 | 423 ft | 2 kts | 345° |
| 2026-05-08 21:23 | 38.04578 | -87.52673 | 423 ft | 0 kts | 346° |
| 2026-05-08 21:23 | 38.04580 | -87.52674 | 423 ft | 0 kts | 346° |